createdAt,value
2022-10-10T00:00:49.008Z,78000.00
2022-10-10T00:03:35.512Z,78000.00
2022-10-10T00:06:02.510Z,78004.03
2022-10-10T00:08:29.770Z,78004.03
2022-10-10T00:10:56.753Z,78008.09
2022-10-10T00:13:23.855Z,78006.06
2022-10-10T00:15:51.058Z,78012.16
2022-10-10T00:18:18.325Z,78010.13
2022-10-10T00:20:45.272Z,78004.03
2022-10-10T00:23:12.321Z,78004.03
2022-10-10T00:25:39.263Z,78004.03
2022-10-10T00:28:06.473Z,78004.03
2022-10-10T00:30:33.554Z,78004.03
2022-10-10T00:33:01.288Z,78016.22
2022-10-10T00:35:28.898Z,78020.28
2022-10-10T00:37:56.343Z,78024.31
2022-10-10T00:40:24.373Z,78020.28
2022-10-10T00:42:51.812Z,78032.44
2022-10-10T00:45:36.040Z,78040.56
2022-10-10T00:48:15.164Z,78048.66
2022-10-10T00:51:02.864Z,78056.78
2022-10-10T00:53:54.027Z,78062.84
2022-10-10T00:56:26.097Z,78056.78
2022-10-10T00:58:56.522Z,78060.81
2022-10-10T01:01:23.482Z,78064.88
2022-10-10T01:03:50.841Z,78066.91
2022-10-10T01:06:17.764Z,78077.06
2022-10-10T01:08:45.053Z,78081.09
2022-10-10T01:11:35.293Z,78089.22
2022-10-10T01:14:08.521Z,78093.28
2022-10-10T01:16:41.123Z,78099.34
2022-10-10T01:19:17.208Z,78109.50
2022-10-10T01:22:20.822Z,78109.50
2022-10-10T01:25:03.110Z,78121.66
2022-10-10T01:27:54.067Z,78121.66
2022-10-10T01:30:23.365Z,78129.78
2022-10-10T01:32:57.085Z,78137.91
2022-10-10T01:35:59.061Z,78143.97
2022-10-10T01:38:50.738Z,78146.00
2022-10-10T01:41:32.643Z,78150.06
2022-10-10T01:44:00.046Z,78158.16
2022-10-10T01:46:27.099Z,78166.28
2022-10-10T01:48:57.944Z,78160.19
2022-10-10T01:51:49.444Z,78154.13
2022-10-10T01:54:28.388Z,78154.13
2022-10-10T01:57:01.388Z,78158.16
2022-10-10T01:59:49.607Z,78162.22
2022-10-10T02:02:24.658Z,78170.34
2022-10-10T02:04:58.735Z,78160.19
2022-10-10T02:07:34.122Z,78170.34
2022-10-10T02:10:04.527Z,78170.34
2022-10-10T02:12:33.930Z,78186.56
2022-10-10T02:15:10.588Z,78194.69
2022-10-10T02:17:39.877Z,78190.63
2022-10-10T02:20:10.928Z,78202.78
2022-10-10T02:22:41.513Z,78210.91
2022-10-10T02:25:09.089Z,78210.91
2022-10-10T02:27:57.811Z,78219.00
2022-10-10T02:30:25.143Z,78223.06
2022-10-10T02:32:58.619Z,78210.91
2022-10-10T02:35:31.373Z,78219.00
2022-10-10T02:38:01.848Z,78219.00
2022-10-10T02:40:31.991Z,78227.13
2022-10-10T02:43:02.598Z,78227.13
2022-10-10T02:45:33.167Z,78233.22
2022-10-10T02:48:01.406Z,78239.28
2022-10-10T02:50:30.285Z,78247.41
2022-10-10T02:52:58.402Z,78251.47
2022-10-10T02:55:25.622Z,78259.56
2022-10-10T02:57:53.189Z,78259.56
2022-10-10T03:00:20.202Z,78255.53
2022-10-10T03:02:47.638Z,78259.56
2022-10-10T03:05:14.969Z,78255.53
2022-10-10T03:07:42.077Z,78263.63
2022-10-10T03:10:10.329Z,78271.75
2022-10-10T03:12:37.881Z,78279.84
2022-10-10T03:15:10.519Z,78283.91
2022-10-10T03:17:39.081Z,78292.03
2022-10-10T03:20:07.133Z,78308.25
2022-10-10T03:22:34.003Z,78312.31
2022-10-10T03:25:01.320Z,78304.19
2022-10-10T03:27:28.385Z,78300.13
2022-10-10T03:29:55.509Z,78296.09
2022-10-10T03:32:22.653Z,78306.22
2022-10-10T03:34:50.041Z,78308.25
2022-10-10T03:37:16.880Z,78316.34
2022-10-10T03:39:44.026Z,78332.59
2022-10-10T03:42:10.908Z,78340.69
2022-10-10T03:44:38.397Z,78344.75
2022-10-10T03:47:05.697Z,78356.94
2022-10-10T03:49:33.469Z,78356.94
2022-10-10T03:52:01.500Z,78360.97
2022-10-10T03:54:28.649Z,78352.88
2022-10-10T03:56:55.549Z,78360.97
2022-10-10T03:59:22.815Z,78360.97
2022-10-10T04:01:49.941Z,78363.00
2022-10-10T04:04:17.375Z,78360.97
2022-10-10T04:06:44.390Z,78365.03
2022-10-10T04:09:11.808Z,78369.09
2022-10-10T04:11:40.839Z,78387.34
2022-10-10T04:14:08.353Z,78389.38
2022-10-10T04:16:35.335Z,78385.31
2022-10-10T04:19:02.504Z,78373.16
2022-10-10T04:21:29.482Z,78371.13
2022-10-10T04:23:56.745Z,78369.09
2022-10-10T04:26:23.965Z,78369.09
2022-10-10T04:28:51.407Z,78369.09
2022-10-10T04:31:18.571Z,78369.09
2022-10-10T04:33:45.817Z,78365.03
2022-10-10T04:36:13.967Z,78360.97
2022-10-10T04:38:41.321Z,78365.03
2022-10-10T04:41:08.312Z,78360.97
2022-10-10T04:43:35.453Z,78356.94
2022-10-10T04:46:02.718Z,78363.00
2022-10-10T04:48:30.413Z,78373.16
2022-10-10T04:50:59.032Z,78363.00
2022-10-10T04:53:27.853Z,78369.09
2022-10-10T04:55:54.793Z,78360.97
2022-10-10T04:58:22.252Z,78358.94
2022-10-10T05:00:54.108Z,78356.94
2022-10-10T05:03:23.233Z,78360.97
2022-10-10T05:05:50.837Z,78367.06
2022-10-10T05:08:18.714Z,78373.16
2022-10-10T05:10:47.046Z,78377.22
2022-10-10T05:13:16.106Z,78365.03
2022-10-10T05:15:43.369Z,78358.94
2022-10-10T05:18:11.308Z,78340.69
2022-10-10T05:20:38.410Z,78340.69
2022-10-10T05:23:05.995Z,78336.66
2022-10-10T05:25:33.297Z,78336.66
2022-10-10T05:28:00.409Z,78328.53
2022-10-10T05:30:27.409Z,78332.59
2022-10-10T05:32:54.573Z,78334.63
2022-10-10T05:35:22.131Z,78340.69
2022-10-10T05:37:49.540Z,78342.72
2022-10-10T05:40:16.599Z,78336.66
2022-10-10T05:42:44.196Z,78338.66
2022-10-10T05:45:11.236Z,78352.88
2022-10-10T05:47:38.601Z,78340.69
2022-10-10T05:50:07.046Z,78342.72
2022-10-10T05:52:36.298Z,78336.66
2022-10-10T05:55:04.082Z,78318.38
2022-10-10T05:57:31.303Z,78308.25
2022-10-10T05:59:58.295Z,78296.09
2022-10-10T06:02:25.458Z,78296.09
2022-10-10T06:04:52.342Z,78283.91
2022-10-10T06:07:20.067Z,78263.63
2022-10-10T06:09:47.239Z,78247.41
2022-10-10T06:12:14.777Z,78239.28
2022-10-10T06:14:41.747Z,78223.06
2022-10-10T06:17:09.029Z,78202.78
2022-10-10T06:19:35.969Z,78194.69
2022-10-10T06:22:03.107Z,78174.41
2022-10-10T06:24:30.114Z,78158.16
2022-10-10T06:26:57.222Z,78148.03
2022-10-10T06:29:24.229Z,78139.91
2022-10-10T06:31:51.302Z,78121.66
2022-10-10T06:34:18.314Z,78113.56
2022-10-10T06:36:45.508Z,78113.56
2022-10-10T06:39:12.417Z,78109.50
2022-10-10T06:41:39.749Z,78089.22
2022-10-10T06:44:11.062Z,78077.06
2022-10-10T06:46:38.165Z,78068.94
2022-10-10T06:49:05.410Z,78064.88
2022-10-10T06:51:32.814Z,78058.81
2022-10-10T06:53:59.837Z,78040.56
2022-10-10T06:56:28.069Z,78024.31
2022-10-10T06:58:56.373Z,78024.31
2022-10-10T07:01:25.474Z,78022.28
2022-10-10T07:03:53.309Z,78008.09
2022-10-10T07:06:20.561Z,77991.88
2022-10-10T07:08:47.605Z,77991.88
2022-10-10T07:11:14.792Z,77987.81
2022-10-10T07:13:41.758Z,77983.75
2022-10-10T07:16:11.318Z,77979.72
2022-10-10T07:18:38.876Z,77975.66
2022-10-10T07:21:06.450Z,77967.53
2022-10-10T07:23:33.836Z,77955.38
2022-10-10T07:26:03.738Z,77945.25
2022-10-10T07:28:31.441Z,77924.97
2022-10-10T07:31:07.936Z,77906.72
2022-10-10T07:33:44.920Z,77894.53
2022-10-10T07:36:14.780Z,77882.38
2022-10-10T07:38:41.814Z,77862.09
2022-10-10T07:41:12.457Z,77845.88
2022-10-10T07:43:39.829Z,77837.75
2022-10-10T07:46:15.177Z,77825.59
2022-10-10T07:48:42.127Z,77807.34
2022-10-10T07:51:10.836Z,77789.09
2022-10-10T07:53:38.856Z,77774.91
2022-10-10T07:56:07.946Z,77752.59
2022-10-10T07:58:36.084Z,77740.44
2022-10-10T08:01:09.665Z,77730.28
2022-10-10T08:03:37.667Z,77716.09
2022-10-10T08:06:07.246Z,77705.94
2022-10-10T08:08:40.801Z,77685.69
2022-10-10T08:11:12.083Z,77681.63
2022-10-10T08:13:41.415Z,77667.44
2022-10-10T08:16:08.933Z,77657.28
2022-10-10T08:18:35.963Z,77643.09
2022-10-10T08:21:06.194Z,77634.97
2022-10-10T08:23:33.539Z,77622.81
2022-10-10T08:26:02.423Z,77622.81
2022-10-10T08:28:29.770Z,77602.53
2022-10-10T08:30:57.207Z,77588.34
2022-10-10T08:33:28.620Z,77582.25
2022-10-10T08:35:55.788Z,77559.97
2022-10-10T08:38:22.835Z,77543.72
2022-10-10T08:40:56.675Z,77533.59
2022-10-10T08:43:33.725Z,77509.25
2022-10-10T08:46:10.929Z,77493.03
2022-10-10T08:48:39.792Z,77480.88
2022-10-10T08:51:13.014Z,77472.78
2022-10-10T08:53:52.339Z,77460.59
2022-10-10T08:56:27.516Z,77448.44
2022-10-10T08:59:00.649Z,77448.44
2022-10-10T09:01:34.869Z,77436.28
2022-10-10T09:04:05.053Z,77420.06
2022-10-10T09:07:15.126Z,77399.78
2022-10-10T09:10:23.558Z,77387.59
2022-10-10T09:13:17.549Z,77379.50
2022-10-10T09:15:58.360Z,77371.38
2022-10-10T09:18:31.842Z,77359.22
2022-10-10T09:21:07.158Z,77338.94
2022-10-10T09:23:43.798Z,77330.84
2022-10-10T09:26:16.638Z,77324.75
2022-10-10T09:28:50.050Z,77300.44
2022-10-10T09:31:24.820Z,77294.34
2022-10-10T09:34:05.590Z,77278.13
2022-10-10T09:36:36.081Z,77265.97
2022-10-10T09:39:32.470Z,77249.75
2022-10-10T09:42:04.971Z,77235.53
2022-10-10T09:44:32.899Z,77221.34
2022-10-10T09:47:00.723Z,77217.28
2022-10-10T09:49:29.726Z,77217.28
2022-10-10T09:51:56.704Z,77192.97
2022-10-10T09:54:25.190Z,77176.75
2022-10-10T09:56:59.932Z,77176.75
2022-10-10T09:59:47.198Z,77164.59
2022-10-10T10:02:24.916Z,77152.41
2022-10-10T10:04:53.106Z,77144.31
2022-10-10T10:07:26.314Z,77140.25
2022-10-10T10:10:17.155Z,77111.88
2022-10-10T10:12:45.327Z,77103.75
2022-10-10T10:15:19.972Z,77093.63
2022-10-10T10:17:47.118Z,77083.50
2022-10-10T10:20:29.526Z,77079.44
2022-10-10T10:22:56.600Z,77063.22
2022-10-10T10:25:37.970Z,77040.91
2022-10-10T10:28:11.148Z,77020.63
2022-10-10T10:30:43.547Z,77014.56
2022-10-10T10:33:19.770Z,77002.41
2022-10-10T10:36:22.490Z,77002.41
2022-10-10T10:39:03.386Z,76988.19
2022-10-10T10:41:43.895Z,76982.13
2022-10-10T10:44:22.890Z,76961.84
2022-10-10T10:47:21.219Z,76933.47
2022-10-10T10:50:03.427Z,76935.50
2022-10-10T10:52:56.578Z,76925.34
2022-10-10T10:55:59.226Z,76917.25
2022-10-10T11:02:05.391Z,76880.75
2022-10-10T11:05:18.128Z,76886.84
2022-10-10T11:07:52.924Z,76860.47
2022-10-10T11:10:35.124Z,76868.59
2022-10-10T11:13:20.656Z,76864.53
2022-10-10T11:16:20.339Z,76848.31
2022-10-10T11:19:02.070Z,76834.13
2022-10-10T11:21:32.814Z,76832.09
2022-10-10T11:24:09.406Z,76832.09
2022-10-10T11:26:44.303Z,76819.94
2022-10-10T11:29:23.175Z,76826.00
2022-10-10T11:32:12.603Z,76819.94
2022-10-10T11:34:47.263Z,76811.81
2022-10-10T11:37:19.867Z,76809.81
2022-10-10T11:39:55.518Z,76783.44
2022-10-10T11:42:36.059Z,76787.50
2022-10-10T11:45:13.374Z,76765.19
2022-10-10T11:47:47.518Z,76751.00
2022-10-10T11:50:29.338Z,76734.78
2022-10-10T11:53:13.272Z,76730.75
2022-10-10T11:56:00.064Z,76722.63
2022-10-10T11:58:38.661Z,76714.53
2022-10-10T12:01:23.508Z,76730.75
2022-10-10T12:03:52.434Z,76722.63
2022-10-10T12:06:35.320Z,76710.47
2022-10-10T12:09:11.149Z,76690.19
2022-10-10T12:11:47.492Z,76673.97
2022-10-10T12:14:19.350Z,76665.88
2022-10-10T12:16:47.477Z,76653.72
2022-10-10T12:19:22.721Z,76653.72
2022-10-10T12:22:08.321Z,76653.72
2022-10-10T12:24:42.518Z,76649.66
2022-10-10T12:27:26.836Z,76641.53
2022-10-10T12:29:56.762Z,76659.78
2022-10-10T12:32:41.059Z,76637.50
2022-10-10T12:35:41.535Z,76629.38
2022-10-10T12:38:15.812Z,76633.44
2022-10-10T12:41:05.928Z,76627.34
2022-10-10T12:44:10.066Z,76629.38
2022-10-10T12:46:37.264Z,76613.16
2022-10-10T12:49:24.284Z,76613.16
2022-10-10T12:52:01.539Z,76601.00
2022-10-10T12:54:33.881Z,76596.94
2022-10-10T12:57:13.810Z,76584.78
2022-10-10T12:59:41.841Z,76588.84
2022-10-10T13:02:22.186Z,76572.63
2022-10-10T13:04:52.706Z,76560.47
2022-10-10T13:07:21.764Z,76554.38
2022-10-10T13:09:51.145Z,76560.47
2022-10-10T13:12:30.230Z,76560.47
2022-10-10T13:14:58.077Z,76556.41
2022-10-10T13:17:32.319Z,76540.19
2022-10-10T13:20:01.152Z,76536.13
2022-10-10T13:22:33.366Z,76530.06
2022-10-10T13:25:00.914Z,76528.03
2022-10-10T13:27:35.276Z,76528.03
2022-10-10T13:30:03.366Z,76515.88
2022-10-10T13:32:36.015Z,76507.75
2022-10-10T13:35:13.491Z,76511.81
2022-10-10T13:37:42.926Z,76503.69
2022-10-10T13:40:17.212Z,76497.63
2022-10-10T13:42:48.365Z,76491.53
2022-10-10T13:45:43.951Z,76485.47
2022-10-10T13:48:18.292Z,76479.38
2022-10-10T13:50:47.843Z,76489.50
2022-10-10T13:53:29.155Z,76483.44
2022-10-10T13:56:36.174Z,76479.38
2022-10-10T13:59:06.133Z,76471.28
2022-10-10T14:01:36.185Z,76471.28
2022-10-10T14:04:12.894Z,76473.28
2022-10-10T14:06:43.294Z,76475.31
2022-10-10T14:09:39.377Z,76469.25
2022-10-10T14:12:15.270Z,76467.22
2022-10-10T14:14:48.194Z,76463.16
2022-10-10T14:17:16.348Z,76463.16
2022-10-10T14:19:45.309Z,76467.22
2022-10-10T14:22:12.535Z,76465.19
2022-10-10T14:24:40.575Z,76469.25
2022-10-10T14:27:19.985Z,76467.22
2022-10-10T14:29:48.237Z,76467.22
2022-10-10T14:32:16.364Z,76467.22
2022-10-10T14:34:44.402Z,76471.28
2022-10-10T14:37:32.562Z,76495.59
2022-10-10T14:39:59.775Z,76471.28
2022-10-10T14:42:27.079Z,76467.22
2022-10-10T14:44:54.992Z,76467.22
2022-10-10T14:47:24.107Z,76473.28
2022-10-10T14:49:53.470Z,76483.44
2022-10-10T14:52:20.631Z,76491.53
2022-10-10T14:54:48.163Z,76491.53
2022-10-10T14:57:15.675Z,76501.69
2022-10-10T14:59:46.497Z,76511.81
2022-10-10T15:02:21.665Z,76532.09
2022-10-10T15:04:50.456Z,76544.25
2022-10-10T15:07:17.901Z,76556.41
2022-10-10T15:10:17.529Z,76560.47
2022-10-10T15:12:36.422Z,76568.56
2022-10-10T15:15:04.703Z,76580.72
2022-10-10T15:17:34.478Z,76590.88
2022-10-10T15:20:06.910Z,76603.03
2022-10-10T15:22:34.873Z,76617.22
2022-10-10T15:25:02.213Z,76621.28
2022-10-10T15:27:29.554Z,76629.38
2022-10-10T15:29:56.649Z,76637.50
2022-10-10T15:32:23.746Z,76647.63
2022-10-10T15:34:51.439Z,76661.81
2022-10-10T15:37:19.181Z,76669.94
2022-10-10T15:39:47.506Z,76669.94
2022-10-10T15:42:21.286Z,76682.09
2022-10-10T15:44:50.584Z,76686.13
2022-10-10T15:47:19.340Z,76698.31
2022-10-10T15:49:46.439Z,76698.31
2022-10-10T15:52:14.334Z,76708.44
2022-10-10T15:54:41.418Z,76714.53
2022-10-10T15:57:08.548Z,76708.44
2022-10-10T15:59:37.940Z,76710.47
2022-10-10T16:02:07.679Z,76726.69
2022-10-10T16:04:34.676Z,76734.78
2022-10-10T16:09:48.869Z,76759.13
2022-10-10T16:12:15.814Z,76759.13
2022-10-10T16:15:06.742Z,76771.28
2022-10-10T16:17:35.005Z,76783.44
2022-10-10T16:20:02.236Z,76783.44
2022-10-10T16:22:29.412Z,76795.59
2022-10-10T16:27:43.859Z,76803.72
2022-10-10T16:30:11.838Z,76809.81
2022-10-10T16:32:42.417Z,76811.81
2022-10-10T16:35:11.557Z,76821.97
2022-10-10T16:37:39.609Z,76813.84
2022-10-10T16:40:08.074Z,76819.94
2022-10-10T16:42:35.535Z,76819.94
2022-10-10T16:45:02.766Z,76828.03
2022-10-10T16:47:29.908Z,76832.09
2022-10-10T16:49:57.125Z,76836.16
2022-10-10T16:52:24.187Z,76842.22
2022-10-10T16:54:52.444Z,76846.28
2022-10-10T16:57:20.207Z,76856.44
2022-10-10T16:59:47.318Z,76856.44
2022-10-10T17:02:14.258Z,76862.50
2022-10-10T17:04:41.745Z,76870.63
2022-10-10T17:07:08.922Z,76868.59
2022-10-10T17:09:53.990Z,76868.59
2022-10-10T17:12:21.094Z,76872.66
2022-10-10T17:14:48.038Z,76876.69
2022-10-10T17:17:17.629Z,76880.75
2022-10-10T17:19:45.005Z,76880.75
2022-10-10T17:22:12.088Z,76888.88
2022-10-10T17:24:39.305Z,76890.88
2022-10-10T17:27:06.693Z,76896.97
2022-10-10T17:29:34.026Z,76901.03
2022-10-10T17:32:05.921Z,76903.06
2022-10-10T17:34:33.475Z,76911.16
2022-10-10T17:37:01.032Z,76919.28
2022-10-10T17:39:28.311Z,76913.19
2022-10-10T17:41:55.320Z,76921.31
2022-10-10T17:44:23.560Z,76925.34
2022-10-10T17:46:50.865Z,76929.41
2022-10-10T17:49:19.416Z,76933.47
2022-10-10T17:51:46.515Z,76933.47
2022-10-10T17:54:14.045Z,76939.53
2022-10-10T17:56:42.072Z,76945.63
2022-10-10T17:59:10.266Z,76953.75
2022-10-10T18:01:39.286Z,76957.78
2022-10-10T18:04:06.662Z,76953.75
2022-10-10T18:06:33.876Z,76965.91
2022-10-10T18:09:01.060Z,76974.00
2022-10-10T18:11:30.544Z,76982.13
2022-10-10T18:14:00.493Z,76982.13
2022-10-10T18:16:32.343Z,76982.13
2022-10-10T18:19:00.184Z,76974.00
2022-10-10T18:21:28.012Z,76982.13
2022-10-10T18:23:55.477Z,76986.16
2022-10-10T18:26:29.627Z,76988.19
2022-10-10T18:28:57.313Z,76990.22
2022-10-10T18:31:35.451Z,76998.34
2022-10-10T18:34:04.379Z,76998.34
2022-10-10T18:36:33.719Z,76994.28
2022-10-10T18:39:03.924Z,76994.28
2022-10-10T18:41:34.475Z,77000.38
2022-10-10T18:44:07.335Z,76998.34
2022-10-10T18:46:35.797Z,77010.50
2022-10-10T18:49:05.112Z,77006.44
2022-10-10T18:51:32.984Z,77008.47
2022-10-10T18:54:04.274Z,77006.44
2022-10-10T18:56:32.736Z,77008.47
2022-10-10T18:59:02.436Z,77026.72
2022-10-10T19:01:33.203Z,77022.66
2022-10-10T19:04:00.221Z,77024.69
2022-10-10T19:06:27.113Z,77022.66
2022-10-10T19:08:55.805Z,77028.75
2022-10-10T19:11:28.677Z,77022.66
2022-10-10T19:13:56.389Z,77026.72
2022-10-10T19:16:23.362Z,77032.81
2022-10-10T19:18:50.259Z,77038.88
2022-10-10T19:21:17.634Z,77038.88
2022-10-10T19:23:45.044Z,77034.84
2022-10-10T19:26:14.961Z,77034.84
2022-10-10T19:28:42.902Z,77042.94
2022-10-10T19:31:12.849Z,77042.94
2022-10-10T19:33:40.609Z,77051.06
2022-10-10T19:36:09.561Z,77057.13
2022-10-10T19:38:39.141Z,77049.03
2022-10-10T19:41:08.950Z,77057.13
2022-10-10T19:43:35.985Z,77057.13
2022-10-10T19:46:08.440Z,77051.06
2022-10-10T19:48:37.102Z,77047.00
2022-10-10T19:51:06.993Z,77047.00
2022-10-10T19:53:36.206Z,77047.00
2022-10-10T19:56:07.634Z,77051.06
2022-10-10T19:58:35.931Z,77059.16
2022-10-10T20:01:24.464Z,77051.06
2022-10-10T20:03:54.603Z,77063.22
2022-10-10T20:06:22.008Z,77059.16
2022-10-10T20:08:49.667Z,77075.38
2022-10-10T20:11:18.677Z,77071.31
2022-10-10T20:13:46.391Z,77075.38
2022-10-10T20:16:13.573Z,77071.31
2022-10-10T20:18:42.097Z,77073.34
2022-10-10T20:21:22.175Z,77067.28
2022-10-10T20:23:49.956Z,77079.44
2022-10-10T20:26:19.599Z,77071.31
2022-10-10T20:28:49.329Z,77075.38
2022-10-10T20:31:29.226Z,77079.44
2022-10-10T20:34:03.538Z,77083.50
2022-10-10T20:36:32.253Z,77087.53
2022-10-10T20:39:02.944Z,77079.44
2022-10-10T20:41:31.857Z,77079.44
2022-10-10T20:44:01.218Z,77083.50
2022-10-10T20:46:30.925Z,77085.50
2022-10-10T20:49:00.282Z,77091.59
2022-10-10T20:51:28.439Z,77091.59
2022-10-10T20:53:58.957Z,77083.50
2022-10-10T20:56:27.175Z,77083.50
2022-10-10T20:58:55.285Z,77077.41
2022-10-10T21:01:25.622Z,77081.47
2022-10-10T21:03:53.030Z,77091.59
2022-10-10T21:06:22.980Z,77091.59
2022-10-10T21:08:51.327Z,77087.53
2022-10-10T21:11:19.157Z,77091.59
2022-10-10T21:13:54.120Z,77083.50
2022-10-10T21:16:22.468Z,77079.44
2022-10-10T21:18:57.547Z,77079.44
2022-10-10T21:21:27.634Z,77071.31
2022-10-10T21:23:56.434Z,77065.25
2022-10-10T21:26:25.399Z,77067.28
2022-10-10T21:28:53.244Z,77065.25
2022-10-10T21:31:25.386Z,77063.22
2022-10-10T21:33:53.481Z,77049.03
2022-10-10T21:36:22.097Z,77042.94
2022-10-10T21:38:49.003Z,77032.81
2022-10-10T21:41:19.455Z,77020.63
2022-10-10T21:43:48.935Z,77020.63
2022-10-10T21:46:19.122Z,77014.56
2022-10-10T21:48:46.090Z,77010.50
2022-10-10T21:51:15.594Z,77002.41
2022-10-10T21:53:45.033Z,77000.38
2022-10-10T21:56:12.325Z,77002.41
2022-10-10T21:58:41.428Z,76998.34
2022-10-10T22:01:09.878Z,76988.19
2022-10-10T22:03:37.449Z,76984.16
2022-10-10T22:06:06.806Z,76982.13
2022-10-10T22:08:35.034Z,76971.97
2022-10-10T22:11:04.065Z,76965.91
2022-10-10T22:13:32.215Z,76961.84
2022-10-10T22:15:59.311Z,76961.84
2022-10-10T22:18:26.549Z,76955.75
2022-10-10T22:20:53.989Z,76949.69
2022-10-10T22:23:21.040Z,76945.63
2022-10-10T22:25:50.294Z,76945.63
2022-10-10T22:28:18.711Z,76945.63
2022-10-10T22:30:46.403Z,76949.69
2022-10-10T22:33:13.549Z,76949.69
2022-10-10T22:35:40.643Z,76949.69
2022-10-10T22:38:07.555Z,76941.56
2022-10-10T22:40:34.889Z,76941.56
2022-10-10T22:43:01.815Z,76941.56
2022-10-10T22:45:29.503Z,76943.59
2022-10-10T22:47:57.386Z,76941.56
2022-10-10T22:50:24.396Z,76941.56
2022-10-10T22:52:51.312Z,76941.56
2022-10-10T22:55:19.067Z,76933.47
2022-10-10T22:57:46.256Z,76929.41
2022-10-10T23:00:13.979Z,76929.41
2022-10-10T23:02:41.069Z,76931.44
2022-10-10T23:05:08.511Z,76927.38
2022-10-10T23:07:35.987Z,76925.34
2022-10-10T23:10:03.841Z,76925.34
2022-10-10T23:12:30.887Z,76929.41
2022-10-10T23:14:57.905Z,76933.47
2022-10-10T23:17:24.924Z,76929.41
2022-10-10T23:19:51.830Z,76933.47
2022-10-10T23:22:18.913Z,76931.44
2022-10-10T23:24:47.046Z,76929.41
2022-10-10T23:27:13.932Z,76929.41
2022-10-10T23:29:41.060Z,76929.41
2022-10-10T23:32:08.163Z,76929.41
2022-10-10T23:34:35.118Z,76929.41
2022-10-10T23:37:02.246Z,76931.44
2022-10-10T23:39:29.126Z,76935.50
2022-10-10T23:41:56.040Z,76931.44
2022-10-10T23:44:23.213Z,76933.47
2022-10-10T23:46:50.261Z,76937.53
2022-10-10T23:49:17.221Z,76933.47
2022-10-10T23:51:44.271Z,76937.53
2022-10-10T23:54:11.199Z,76933.47
2022-10-10T23:56:38.068Z,76941.56
2022-10-10T23:59:05.191Z,76941.56
